createdAt,value
2019-05-02T00:06:07.512Z,99.99
2019-05-02T00:17:08.549Z,99.99
2019-05-02T00:28:12.311Z,99.99
2019-05-02T00:39:16.666Z,99.99
2019-05-02T00:50:12.922Z,99.99
2019-05-02T01:01:16.928Z,99.99
2019-05-02T01:12:26.212Z,99.99
2019-05-02T01:23:23.057Z,99.99
2019-05-02T01:34:25.857Z,99.99
2019-05-02T01:45:23.301Z,99.99
2019-05-02T01:56:28.454Z,99.99
2019-05-02T02:07:29.178Z,99.99
2019-05-02T02:18:27.989Z,99.99
2019-05-02T02:29:31.297Z,99.99
2019-05-02T02:40:33.495Z,99.99
2019-05-02T02:51:37.886Z,99.99
2019-05-02T03:02:47.821Z,99.99
2019-05-02T03:13:52.474Z,99.99
2019-05-02T03:24:49.820Z,99.99
2019-05-02T03:35:53.973Z,99.99
2019-05-02T03:47:02.321Z,99.99
2019-05-02T03:58:12.816Z,99.99
2019-05-02T04:09:07.093Z,99.99
2019-05-02T04:20:09.694Z,99.99
2019-05-02T04:31:11.774Z,99.99
2019-05-02T04:42:18.734Z,99.99
2019-05-02T04:53:15.043Z,99.99
2019-05-02T05:04:15.139Z,99.99
2019-05-02T05:15:33.797Z,99.99
2019-05-02T05:26:17.559Z,99.99
2019-05-02T05:37:21.369Z,99.99
2019-05-02T05:48:18.957Z,99.99
2019-05-02T05:59:30.375Z,99.99
2019-05-02T06:10:38.975Z,99.99
2019-05-02T06:21:45.154Z,99.99
2019-05-02T06:32:54.423Z,99.99
2019-05-02T06:43:50.011Z,99.99
2019-05-02T06:54:54.050Z,99.99
2019-05-02T07:05:58.637Z,99.13
2019-05-02T07:17:05.628Z,95.70
2019-05-02T07:28:10.638Z,95.11
2019-05-02T07:39:15.047Z,96.37
2019-05-02T07:50:16.534Z,92.46
2019-05-02T08:01:22.015Z,89.86
2019-05-02T08:12:26.165Z,85.60
2019-05-02T08:23:28.013Z,82.46
2019-05-02T08:34:30.260Z,75.37
2019-05-02T08:45:38.086Z,72.50
2019-05-02T08:56:34.997Z,70.76
2019-05-02T09:07:39.370Z,71.83
2019-05-02T09:18:50.667Z,70.46
2019-05-02T09:29:52.001Z,71.99
2019-05-02T09:40:56.209Z,69.16
2019-05-02T09:52:00.719Z,73.55
2019-05-02T10:03:04.853Z,70.95
2019-05-02T10:14:04.339Z,71.05
2019-05-02T10:25:03.856Z,72.15
2019-05-02T10:36:04.122Z,71.15
2019-05-02T10:46:45.138Z,72.88
2019-05-02T10:57:52.742Z,69.36
2019-05-02T11:08:42.114Z,69.39
2019-05-02T11:19:21.882Z,67.96
2019-05-02T11:30:05.865Z,61.27
2019-05-02T11:40:52.695Z,60.31
2019-05-02T11:51:30.066Z,61.89
2019-05-02T12:02:17.566Z,64.00
2019-05-02T12:12:58.460Z,59.99
2019-05-02T12:23:32.336Z,60.66
2019-05-02T12:34:14.481Z,63.64
2019-05-02T12:44:55.255Z,59.27
2019-05-02T12:55:33.429Z,56.73
2019-05-02T13:06:12.362Z,57.13
2019-05-02T13:17:01.326Z,58.16
2019-05-02T13:27:44.383Z,54.06
2019-05-02T13:38:24.739Z,57.40
2019-05-02T13:49:02.163Z,62.27
2019-05-02T13:59:41.660Z,57.42
2019-05-02T14:10:32.238Z,55.85
2019-05-02T14:21:13.480Z,57.06
2019-05-02T14:31:57.425Z,52.95
2019-05-02T14:42:42.791Z,50.61
2019-05-02T14:53:25.497Z,53.54
2019-05-02T15:04:10.334Z,55.90
2019-05-02T15:14:49.751Z,53.83
2019-05-02T15:25:27.597Z,60.14
2019-05-02T15:36:07.485Z,55.73
2019-05-02T15:46:36.865Z,61.80
2019-05-02T15:57:12.958Z,60.12
2019-05-02T16:08:05.276Z,62.46
2019-05-02T16:18:43.568Z,62.95
2019-05-02T16:29:28.172Z,63.48
2019-05-02T16:40:34.332Z,68.83
2019-05-02T16:51:33.984Z,69.13
2019-05-02T17:02:37.872Z,69.56
2019-05-02T17:13:35.880Z,75.23
2019-05-02T17:24:30.028Z,74.87
2019-05-02T17:35:32.542Z,76.37
2019-05-02T17:46:28.081Z,81.92
2019-05-02T17:57:28.483Z,84.15
2019-05-02T18:08:23.134Z,91.56
2019-05-02T18:19:23.154Z,80.87
2019-05-02T18:30:27.062Z,87.10
2019-05-02T18:41:27.638Z,92.89
2019-05-02T18:52:35.062Z,94.28
2019-05-02T19:03:23.013Z,95.98
2019-05-02T19:14:22.337Z,99.99
2019-05-02T19:25:22.751Z,98.74
2019-05-02T19:36:27.705Z,99.99
2019-05-02T19:47:24.942Z,99.99
2019-05-02T19:58:22.860Z,99.99
2019-05-02T20:09:24.940Z,99.99
2019-05-02T20:20:21.653Z,99.99
2019-05-02T20:31:23.669Z,99.99
2019-05-02T20:42:24.353Z,99.99
2019-05-02T20:53:28.803Z,99.99
2019-05-02T21:04:27.159Z,89.15
2019-05-02T21:15:29.730Z,88.85
2019-05-02T21:26:27.432Z,98.24
2019-05-02T21:37:25.298Z,93.15
2019-05-02T21:48:24.108Z,95.72
2019-05-02T21:59:23.827Z,91.46
2019-05-02T22:10:29.415Z,84.15
2019-05-02T22:21:34.717Z,82.70
2019-05-02T22:32:37.125Z,82.34
2019-05-02T22:43:36.553Z,85.03
2019-05-02T22:54:33.944Z,89.89
2019-05-02T23:05:32.094Z,97.52
2019-05-02T23:16:34.629Z,99.27
2019-05-02T23:27:37.227Z,99.99
2019-05-02T23:38:41.471Z,99.99
2019-05-02T23:49:40.302Z,99.99
